createdAt,value
2017-10-13T00:03:26.360Z,63
2017-10-13T00:08:26.690Z,63
2017-10-13T00:13:27.029Z,63
2017-10-13T00:18:27.365Z,63
2017-10-13T00:23:27.698Z,63
2017-10-13T00:28:28.036Z,63
2017-10-13T00:33:28.372Z,63
2017-10-13T00:38:28.711Z,63
2017-10-13T00:43:29.060Z,63
2017-10-13T00:48:29.377Z,64
2017-10-13T00:53:29.713Z,64
2017-10-13T00:58:30.047Z,64
2017-10-13T01:03:30.406Z,64
2017-10-13T01:08:30.721Z,64
2017-10-13T01:13:46.690Z,64
2017-10-13T01:18:33.989Z,64
2017-10-13T01:23:32.558Z,64
2017-10-13T01:28:34.918Z,64
2017-10-13T01:33:34.560Z,64
2017-10-13T01:38:32.747Z,64
2017-10-13T01:43:37.364Z,65
2017-10-13T01:48:33.415Z,65
2017-10-13T01:53:33.757Z,64
2017-10-13T01:58:34.084Z,65
2017-10-13T02:03:34.480Z,65
2017-10-13T02:08:34.754Z,65
2017-10-13T02:13:35.103Z,65
2017-10-13T02:18:37.090Z,65
2017-10-13T02:23:37.599Z,65
2017-10-13T02:28:38.459Z,65
2017-10-13T02:33:38.464Z,65
2017-10-13T02:38:36.773Z,65
2017-10-13T02:43:37.220Z,65
2017-10-13T02:53:37.784Z,65
2017-10-13T02:58:38.116Z,65
2017-10-13T03:03:38.456Z,65
2017-10-13T03:08:38.787Z,65
2017-10-13T03:13:39.123Z,65
2017-10-13T03:18:39.433Z,65
2017-10-13T03:23:39.790Z,65
2017-10-13T03:28:40.134Z,65
2017-10-13T03:33:40.659Z,65
2017-10-13T03:38:40.809Z,65
2017-10-13T03:48:41.474Z,65
2017-10-13T03:53:41.809Z,65
2017-10-13T03:58:42.145Z,65
2017-10-13T04:03:42.488Z,65
2017-10-13T04:08:42.825Z,66
2017-10-13T04:13:43.155Z,65
2017-10-13T04:18:43.509Z,66
2017-10-13T04:23:43.826Z,66
2017-10-13T04:28:47.416Z,66
2017-10-13T04:33:44.547Z,67
2017-10-13T04:38:44.834Z,66
2017-10-13T04:43:45.177Z,67
2017-10-13T04:48:45.507Z,66
2017-10-13T04:53:45.848Z,66
2017-10-13T04:58:46.166Z,66
2017-10-13T05:03:46.514Z,66
2017-10-13T05:08:46.853Z,66
2017-10-13T05:13:47.208Z,66
2017-10-13T05:18:48.606Z,66
2017-10-13T05:23:49.884Z,66
2017-10-13T05:28:48.197Z,66
2017-10-13T05:33:51.062Z,66
2017-10-13T05:38:48.848Z,66
2017-10-13T05:43:49.202Z,66
2017-10-13T05:48:49.516Z,67
2017-10-13T05:53:49.872Z,67
2017-10-13T05:58:50.297Z,68
2017-10-13T06:03:50.695Z,68
2017-10-13T06:08:50.879Z,68
2017-10-13T06:14:04.238Z,67
2017-10-13T06:18:51.559Z,68
2017-10-13T06:23:51.915Z,67
2017-10-13T06:28:52.209Z,67
2017-10-13T06:33:52.561Z,68
2017-10-13T06:38:52.910Z,67
2017-10-13T06:49:01.865Z,68
2017-10-13T06:54:02.196Z,68
2017-10-13T06:59:02.544Z,68
2017-10-13T07:04:02.892Z,68
2017-10-13T07:09:03.204Z,68
2017-10-13T07:14:03.648Z,68
2017-10-13T07:19:03.872Z,68
2017-10-13T07:24:04.232Z,67
2017-10-13T07:29:04.653Z,68
2017-10-13T07:34:04.891Z,67
2017-10-13T07:39:05.216Z,68
2017-10-13T07:44:05.568Z,68
2017-10-13T07:49:05.899Z,68
2017-10-13T07:54:06.315Z,68
2017-10-13T07:59:06.618Z,68
2017-10-13T08:04:06.918Z,68
2017-10-13T08:09:08.386Z,68
2017-10-13T08:14:07.641Z,67
2017-10-13T08:19:09.139Z,67
2017-10-13T08:24:08.238Z,68
2017-10-13T08:29:08.600Z,67
2017-10-13T08:34:12.517Z,68
2017-10-13T08:39:09.285Z,67
2017-10-13T08:44:09.971Z,67
2017-10-13T08:49:09.952Z,67
2017-10-13T08:54:10.281Z,67
2017-10-13T08:59:11.996Z,67
2017-10-13T09:04:10.966Z,67
2017-10-13T09:09:28.111Z,67
2017-10-13T09:14:11.613Z,67
2017-10-13T09:19:11.971Z,67
2017-10-13T09:24:12.307Z,67
2017-10-13T09:29:12.644Z,67
2017-10-13T09:34:12.977Z,66
2017-10-13T09:39:13.320Z,66
2017-10-13T09:44:13.654Z,65
2017-10-13T09:49:14.259Z,65
2017-10-13T09:54:14.371Z,65
2017-10-13T09:59:14.657Z,65
2017-10-13T10:04:14.993Z,65
2017-10-13T10:09:15.705Z,64
2017-10-13T10:16:51.797Z,65
2017-10-13T10:21:52.118Z,65
2017-10-13T10:27:07.760Z,64
2017-10-13T10:31:52.831Z,64
2017-10-13T10:36:53.149Z,64
2017-10-13T10:41:53.477Z,64
2017-10-13T10:47:11.570Z,65
2017-10-13T10:51:54.159Z,64
2017-10-13T10:56:54.499Z,64
2017-10-13T11:01:54.836Z,64
2017-10-13T11:06:55.164Z,64
2017-10-13T11:11:55.512Z,64
2017-10-13T11:16:55.831Z,64
2017-10-13T11:21:56.187Z,65
2017-10-13T11:26:56.498Z,65
2017-10-13T11:31:56.877Z,65
2017-10-13T11:36:57.180Z,66
2017-10-13T11:41:57.513Z,66
2017-10-13T11:46:57.868Z,66
2017-10-13T11:51:58.177Z,65
2017-10-13T11:56:58.436Z,65
2017-10-13T12:01:58.878Z,65
2017-10-13T12:06:59.110Z,65
2017-10-13T12:11:59.535Z,65
2017-10-13T12:17:01.987Z,65
2017-10-13T12:22:00.316Z,65
2017-10-13T12:27:00.549Z,65
2017-10-13T12:32:00.892Z,64
2017-10-13T12:37:01.305Z,64
2017-10-13T12:42:01.551Z,64
2017-10-13T12:47:02.550Z,64
2017-10-13T12:52:02.237Z,64
2017-10-13T12:57:02.580Z,63
2017-10-13T13:02:02.953Z,63
2017-10-13T13:07:03.245Z,63
2017-10-13T13:12:03.586Z,63
2017-10-13T13:17:03.929Z,64
2017-10-13T13:22:04.259Z,63
2017-10-13T13:27:05.367Z,63
2017-10-13T13:32:04.935Z,63
2017-10-13T13:37:05.257Z,63
2017-10-13T13:42:05.616Z,63
2017-10-13T13:47:05.982Z,63
2017-10-13T13:52:06.292Z,63
2017-10-13T13:57:06.612Z,63
2017-10-13T14:02:07.100Z,63
2017-10-13T14:07:09.379Z,63
2017-10-13T14:12:07.617Z,62
2017-10-13T14:17:07.962Z,62
2017-10-13T14:22:08.281Z,63
2017-10-13T14:27:08.639Z,63
2017-10-13T14:32:08.970Z,63
2017-10-13T14:37:09.307Z,63
2017-10-13T14:42:09.620Z,63
2017-10-13T14:47:09.994Z,63
2017-10-13T14:52:10.321Z,63
2017-10-13T14:57:10.638Z,63
2017-10-13T15:02:10.983Z,63
2017-10-13T15:07:11.332Z,63
2017-10-13T15:12:11.662Z,63
2017-10-13T15:17:12.151Z,63
2017-10-13T15:22:12.345Z,63
2017-10-13T15:27:29.154Z,64
2017-10-13T15:32:13.046Z,64
2017-10-13T15:37:16.108Z,64
2017-10-13T15:42:13.686Z,64
2017-10-13T15:47:14.024Z,64
2017-10-13T15:52:14.358Z,64
2017-10-13T15:57:15.276Z,64
2017-10-13T16:02:15.037Z,64
2017-10-13T16:07:15.360Z,65
2017-10-13T16:12:15.702Z,64
2017-10-13T16:17:16.394Z,65
2017-10-13T16:22:16.391Z,65
2017-10-13T16:27:16.712Z,65
2017-10-13T16:32:17.049Z,65
2017-10-13T16:37:17.379Z,66
2017-10-13T16:42:17.730Z,66
2017-10-13T16:47:18.293Z,66
2017-10-13T16:52:18.388Z,66
2017-10-13T16:57:19.035Z,66
2017-10-13T17:02:19.080Z,66
2017-10-13T17:07:19.410Z,66
2017-10-13T17:12:19.755Z,66
2017-10-13T17:17:20.062Z,66
2017-10-13T17:22:20.421Z,67
2017-10-13T17:27:20.749Z,67
2017-10-13T17:32:21.066Z,67
2017-10-13T17:37:21.413Z,67
2017-10-13T17:42:21.753Z,67
2017-10-13T17:47:22.095Z,67
2017-10-13T17:52:22.440Z,67
2017-10-13T17:57:22.753Z,67
2017-10-13T18:07:23.435Z,67
2017-10-13T18:12:23.776Z,67
2017-10-13T18:17:24.133Z,67
2017-10-13T18:22:24.447Z,67
2017-10-13T18:27:24.791Z,67
2017-10-13T18:32:25.144Z,67
2017-10-13T18:37:25.450Z,67
2017-10-13T18:42:25.801Z,67
2017-10-13T18:47:26.145Z,67
2017-10-13T18:52:26.468Z,67
2017-10-13T18:57:26.825Z,67
2017-10-13T19:02:27.136Z,67
2017-10-13T19:07:27.500Z,67
2017-10-13T19:12:29.327Z,68
2017-10-13T19:17:28.144Z,68
2017-10-13T19:22:28.510Z,68
2017-10-13T19:27:28.828Z,68
2017-10-13T19:32:32.737Z,68
2017-10-13T19:37:30.128Z,68
2017-10-13T19:42:29.839Z,68
2017-10-13T19:47:30.225Z,68
2017-10-13T19:52:30.761Z,68
2017-10-13T19:57:30.846Z,68
2017-10-13T20:02:31.199Z,68
2017-10-13T20:07:31.530Z,69
2017-10-13T20:12:31.871Z,69
2017-10-13T20:17:32.288Z,69
2017-10-13T20:22:32.549Z,69
2017-10-13T20:27:48.122Z,69
2017-10-13T20:32:33.202Z,68
2017-10-13T20:37:34.100Z,68
2017-10-13T20:42:33.872Z,68
2017-10-13T20:47:34.238Z,68
2017-10-13T20:52:34.564Z,68
2017-10-13T20:57:34.916Z,69
2017-10-13T21:02:36.523Z,69
2017-10-13T21:07:36.731Z,68
2017-10-13T21:12:35.913Z,68
2017-10-13T21:17:36.270Z,68
2017-10-13T21:22:36.568Z,68
2017-10-13T21:27:36.916Z,68
2017-10-13T21:32:37.257Z,69
2017-10-13T21:37:39.544Z,69
2017-10-13T21:42:37.917Z,69
2017-10-13T21:47:38.273Z,69
2017-10-13T21:52:38.589Z,69
2017-10-13T21:57:38.943Z,69
2017-10-13T22:02:39.276Z,69
2017-10-13T22:07:39.612Z,69
2017-10-13T22:12:39.928Z,69
2017-10-13T22:17:40.286Z,69
2017-10-13T22:22:40.617Z,69
2017-10-13T22:27:45.067Z,69
2017-10-13T22:32:41.276Z,69
2017-10-13T22:37:41.637Z,69
2017-10-13T22:42:41.957Z,69
2017-10-13T22:47:42.297Z,69
2017-10-13T22:52:42.813Z,69
2017-10-13T22:57:42.990Z,69
2017-10-13T23:02:43.323Z,69
2017-10-13T23:07:43.650Z,69
2017-10-13T23:12:43.996Z,69
2017-10-13T23:17:44.331Z,69
2017-10-13T23:22:44.653Z,69
2017-10-13T23:27:45.001Z,69
2017-10-13T23:32:45.344Z,69
2017-10-13T23:37:45.656Z,69
2017-10-13T23:42:45.996Z,69
2017-10-13T23:47:46.345Z,69
2017-10-13T23:52:46.673Z,69
2017-10-13T23:57:47.020Z,69
